createdAt,value
2022-09-22T00:04:29.654Z,9.67
2022-09-22T00:09:32.021Z,9.43
2022-09-22T00:14:34.644Z,8.20
2022-09-22T00:19:38.109Z,6.53
2022-09-22T00:24:40.487Z,6.07
2022-09-22T00:29:43.832Z,7.87
2022-09-22T00:34:46.154Z,6.77
2022-09-22T00:39:48.513Z,10.50
2022-09-22T00:44:50.839Z,15.87
2022-09-22T00:49:58.836Z,12.70
2022-09-22T00:55:05.373Z,14.50
2022-09-22T01:00:10.678Z,10.40
2022-09-22T01:05:13.233Z,9.27
2022-09-22T01:10:15.710Z,10.20
2022-09-22T01:15:33.575Z,7.93
2022-09-22T01:20:47.899Z,8.20
2022-09-22T01:26:27.105Z,8.77
2022-09-22T01:31:55.721Z,11.10
2022-09-22T01:37:35.014Z,6.53
2022-09-22T01:42:44.277Z,9.97
2022-09-22T01:47:55.639Z,13.90
2022-09-22T01:53:03.610Z,9.77
2022-09-22T01:58:14.008Z,9.37
2022-09-22T02:03:30.518Z,9.23
2022-09-22T02:08:37.787Z,15.33
2022-09-22T02:13:41.218Z,23.27
2022-09-22T02:18:51.761Z,17.57
2022-09-22T02:23:55.063Z,16.73
2022-09-22T02:29:02.994Z,12.23
2022-09-22T02:34:07.348Z,11.07
2022-09-22T02:39:34.425Z,7.47
2022-09-22T02:44:42.473Z,8.00
2022-09-22T02:49:45.684Z,9.73
2022-09-22T02:54:48.204Z,9.23
2022-09-22T02:59:50.529Z,9.50
2022-09-22T03:04:52.932Z,10.10
2022-09-22T03:09:55.286Z,11.13
2022-09-22T03:14:57.609Z,8.67
2022-09-22T03:19:59.954Z,8.43
2022-09-22T03:25:02.498Z,10.70
2022-09-22T03:30:06.398Z,11.30
2022-09-22T03:35:09.287Z,10.40
2022-09-22T03:40:11.636Z,7.33
2022-09-22T03:45:15.078Z,9.53
2022-09-22T03:50:17.477Z,8.37
2022-09-22T03:55:19.970Z,9.87
2022-09-22T04:00:22.280Z,9.00
2022-09-22T04:05:25.461Z,9.13
2022-09-22T04:10:27.777Z,7.10
2022-09-22T04:15:30.098Z,13.43
2022-09-22T04:20:32.590Z,8.83
2022-09-22T04:25:34.948Z,9.60
2022-09-22T04:30:37.592Z,12.73
2022-09-22T04:35:39.984Z,9.13
2022-09-22T04:40:42.310Z,9.40
2022-09-22T04:45:46.327Z,9.13
2022-09-22T04:50:48.665Z,8.90
2022-09-22T04:55:51.103Z,8.60
2022-09-22T05:00:55.761Z,8.13
2022-09-22T05:05:58.245Z,8.03
2022-09-22T05:11:00.600Z,9.13
2022-09-22T05:16:03.123Z,8.60
2022-09-22T05:21:06.198Z,11.83
2022-09-22T05:26:08.569Z,12.40
2022-09-22T05:31:10.979Z,11.50
2022-09-22T05:36:13.328Z,9.83
2022-09-22T05:41:15.678Z,7.80
2022-09-22T05:46:20.584Z,7.67
2022-09-22T05:51:22.957Z,8.23
2022-09-22T05:56:25.635Z,14.17
2022-09-22T06:01:28.069Z,10.33
2022-09-22T06:06:30.555Z,9.83
2022-09-22T06:11:32.949Z,9.37
2022-09-22T06:16:35.346Z,11.87
2022-09-22T06:21:37.754Z,7.33
2022-09-22T06:26:40.197Z,7.60
2022-09-22T06:31:42.639Z,10.50
2022-09-22T06:36:45.409Z,8.83
2022-09-22T06:41:47.705Z,7.73
2022-09-22T06:46:50.479Z,12.97
2022-09-22T06:51:52.866Z,12.37
2022-09-22T06:56:55.965Z,7.47
2022-09-22T07:01:58.390Z,6.20
2022-09-22T07:07:02.695Z,11.73
2022-09-22T07:12:06.218Z,7.83
2022-09-22T07:17:08.629Z,8.23
2022-09-22T07:22:12.932Z,5.37
2022-09-22T07:27:20.474Z,5.83
2022-09-22T07:32:22.884Z,5.57
2022-09-22T07:37:25.468Z,9.00
2022-09-22T07:42:27.908Z,7.23
2022-09-22T07:47:48.729Z,5.00
2022-09-22T07:52:54.584Z,5.10
2022-09-22T07:57:59.615Z,4.87
2022-09-22T08:03:02.034Z,4.83
2022-09-22T08:08:06.075Z,4.30
2022-09-22T08:13:09.313Z,6.67
2022-09-22T08:18:14.374Z,7.03
2022-09-22T08:23:16.740Z,3.40
2022-09-22T08:28:19.078Z,6.07
2022-09-22T08:33:21.540Z,3.00
2022-09-22T08:38:24.245Z,4.80
2022-09-22T08:43:29.775Z,3.53
2022-09-22T08:48:51.638Z,2.93
2022-09-22T08:53:54.102Z,2.33
2022-09-22T08:59:23.443Z,4.67
2022-09-22T09:05:15.977Z,9.00
2022-09-22T09:10:48.149Z,11.67
2022-09-22T09:16:25.847Z,3.13
2022-09-22T09:21:31.044Z,4.20
2022-09-22T09:26:35.617Z,2.77
2022-09-22T09:31:48.794Z,1.97
2022-09-22T09:36:57.423Z,2.60
2022-09-22T09:42:02.212Z,3.83
2022-09-22T09:47:27.404Z,3.27
2022-09-22T09:52:30.938Z,2.70
2022-09-22T09:57:33.273Z,3.10
2022-09-22T10:02:39.770Z,3.33
2022-09-22T10:07:44.969Z,3.67
2022-09-22T10:12:47.361Z,3.60
2022-09-22T10:17:49.903Z,2.30
2022-09-22T10:22:53.496Z,2.03
2022-09-22T10:28:02.004Z,2.60
2022-09-22T10:33:05.836Z,3.37
2022-09-22T10:38:16.013Z,4.30
2022-09-22T10:43:37.040Z,3.13
2022-09-22T10:48:51.639Z,0.90
2022-09-22T10:54:20.835Z,2.80
2022-09-22T10:59:35.140Z,5.83
2022-09-22T11:05:08.642Z,2.00
2022-09-22T11:10:58.095Z,2.60
2022-09-22T11:16:47.498Z,2.60
2022-09-22T11:22:30.725Z,1.93
2022-09-22T11:28:03.232Z,2.40
2022-09-22T11:33:14.533Z,2.53
2022-09-22T11:38:31.103Z,1.40
2022-09-22T11:43:39.652Z,1.27
2022-09-22T11:48:56.994Z,1.50
2022-09-22T11:54:26.620Z,1.33
2022-09-22T11:59:40.767Z,2.40
2022-09-22T12:04:57.003Z,4.00
2022-09-22T12:10:13.623Z,3.70
2022-09-22T12:15:19.807Z,1.00
2022-09-22T12:20:32.922Z,1.70
2022-09-22T12:25:51.980Z,1.10
2022-09-22T12:31:07.539Z,1.40
2022-09-22T12:36:10.035Z,1.27
2022-09-22T12:41:18.750Z,2.00
2022-09-22T12:46:28.798Z,2.27
2022-09-22T12:51:33.268Z,2.50
2022-09-22T12:56:46.646Z,3.13
2022-09-22T13:02:11.752Z,1.63
2022-09-22T13:07:36.079Z,3.07
2022-09-22T13:12:38.519Z,2.67
2022-09-22T13:17:45.691Z,2.70
2022-09-22T13:22:48.553Z,3.43
2022-09-22T13:28:04.022Z,3.40
2022-09-22T13:33:16.810Z,3.83
2022-09-22T13:38:19.545Z,2.00
2022-09-22T13:43:39.983Z,4.03
2022-09-22T13:48:42.287Z,4.97
2022-09-22T13:53:50.451Z,15.63
2022-09-22T13:58:56.974Z,9.17
2022-09-22T14:03:59.615Z,5.23
2022-09-22T14:09:03.503Z,3.33
2022-09-22T14:14:07.748Z,5.30
2022-09-22T14:26:33.283Z,29.93
2022-09-22T14:31:38.717Z,9.57
2022-09-22T14:36:44.542Z,8.37
2022-09-22T14:41:51.913Z,6.13
2022-09-22T14:46:57.305Z,5.93
2022-09-22T14:52:00.652Z,6.40
2022-09-22T14:57:08.089Z,9.57
2022-09-22T15:02:33.159Z,17.90
2022-09-22T15:07:37.960Z,17.43
2022-09-22T15:12:46.205Z,8.37
2022-09-22T15:18:13.465Z,44.70
2022-09-22T15:23:23.050Z,17.87
2022-09-22T15:28:26.921Z,23.10
2022-09-22T15:33:29.202Z,15.70
2022-09-22T15:38:33.188Z,20.40
2022-09-22T15:43:35.722Z,26.93
2022-09-22T15:48:40.028Z,49.10
2022-09-22T15:53:42.359Z,55.80
2022-09-22T15:58:45.086Z,16.57
2022-09-22T16:03:47.434Z,6.87
2022-09-22T16:08:52.197Z,9.60
2022-09-22T16:14:15.355Z,15.43
2022-09-22T16:19:18.000Z,30.20
2022-09-22T16:24:22.605Z,15.63
2022-09-22T16:29:25.659Z,21.17
2022-09-22T16:34:29.304Z,13.63
2022-09-22T16:39:31.721Z,11.13
2022-09-22T16:44:34.103Z,7.97
2022-09-22T16:49:37.207Z,5.20
2022-09-22T16:54:39.715Z,6.60
2022-09-22T16:59:42.080Z,7.77
2022-09-22T17:04:45.658Z,6.70
2022-09-22T17:09:48.024Z,16.70
2022-09-22T17:14:50.985Z,9.23
2022-09-22T17:19:54.306Z,7.90
2022-09-22T17:24:58.349Z,10.30
2022-09-22T17:30:00.681Z,10.17
2022-09-22T17:35:03.142Z,8.37
2022-09-22T17:40:06.054Z,9.07
2022-09-22T17:45:09.296Z,17.10
2022-09-22T17:50:31.243Z,17.60
2022-09-22T17:55:33.617Z,20.73
2022-09-22T18:00:35.986Z,28.07
2022-09-22T18:05:40.018Z,24.57
2022-09-22T18:10:44.165Z,26.63
2022-09-22T18:15:46.818Z,24.97
2022-09-22T18:20:49.144Z,15.77
2022-09-22T18:25:51.439Z,19.37
2022-09-22T18:30:54.139Z,24.57
2022-09-22T18:35:56.814Z,19.57
2022-09-22T18:41:00.023Z,26.30
2022-09-22T18:46:04.617Z,45.37
2022-09-22T18:52:24.489Z,58.47
2022-09-22T18:57:28.691Z,76.50
2022-09-22T19:02:31.265Z,81.63
2022-09-22T19:07:43.001Z,71.70
2022-09-22T19:12:46.224Z,52.40
2022-09-22T19:17:49.699Z,119.53
2022-09-22T19:22:52.872Z,118.67
2022-09-22T19:27:56.021Z,92.27
2022-09-22T19:32:58.310Z,85.60
2022-09-22T19:38:03.425Z,93.10
2022-09-22T19:43:05.913Z,95.80
2022-09-22T19:48:08.268Z,96.93
2022-09-22T19:53:10.597Z,116.10
2022-09-22T19:58:12.872Z,164.20
2022-09-22T20:03:15.282Z,167.57
2022-09-22T20:08:17.661Z,146.53
2022-09-22T20:13:38.351Z,145.80
2022-09-22T20:18:41.404Z,138.97
2022-09-22T20:23:46.944Z,153.73
2022-09-22T20:28:52.583Z,138.90
2022-09-22T20:33:54.942Z,125.80
2022-09-22T20:38:57.333Z,104.63
2022-09-22T20:43:59.789Z,101.23
2022-09-22T20:49:04.104Z,103.20
2022-09-22T20:54:07.372Z,107.70
2022-09-22T20:59:09.933Z,100.23
2022-09-22T21:04:16.173Z,101.07
2022-09-22T21:09:37.270Z,97.87
2022-09-22T21:14:39.919Z,83.33
2022-09-22T21:19:43.352Z,86.10
2022-09-22T21:24:48.704Z,85.50
2022-09-22T21:29:51.464Z,79.47
2022-09-22T21:34:53.945Z,86.93
2022-09-22T21:39:56.285Z,98.27
2022-09-22T21:44:59.126Z,96.10
2022-09-22T21:50:01.565Z,84.63
2022-09-22T21:55:04.210Z,83.23
2022-09-22T22:00:07.507Z,92.23
2022-09-22T22:05:15.036Z,89.20
2022-09-22T22:10:17.381Z,92.90
2022-09-22T22:15:19.918Z,80.33
2022-09-22T22:20:22.182Z,78.37
2022-09-22T22:25:24.454Z,86.13
2022-09-22T22:30:27.154Z,111.97
2022-09-22T22:35:29.430Z,95.63
2022-09-22T22:40:32.142Z,82.83
2022-09-22T22:45:34.456Z,77.80
2022-09-22T22:50:39.678Z,54.40
2022-09-22T22:55:55.027Z,56.57
2022-09-22T23:01:07.921Z,61.20
2022-09-22T23:06:13.295Z,53.23
2022-09-22T23:11:20.127Z,47.90
2022-09-22T23:16:25.377Z,43.37
2022-09-22T23:21:30.255Z,52.77
2022-09-22T23:26:32.559Z,70.17
2022-09-22T23:31:34.831Z,66.47
2022-09-22T23:36:37.343Z,62.30
2022-09-22T23:41:39.717Z,69.80
2022-09-22T23:46:42.014Z,55.63
2022-09-22T23:51:44.318Z,53.73
2022-09-22T23:56:46.709Z,65.40
